createdAt,value
2022-08-26T00:01:30.073Z,98760.25
2022-08-26T00:04:15.737Z,98763.34
2022-08-26T00:07:01.292Z,98763.34
2022-08-26T00:09:47.585Z,98752.22
2022-08-26T00:12:37.278Z,98749.44
2022-08-26T00:15:26.188Z,98747.88
2022-08-26T00:18:21.811Z,98743.09
2022-08-26T00:21:09.457Z,98743.88
2022-08-26T00:23:54.995Z,98736.72
2022-08-26T00:26:41.341Z,98746.31
2022-08-26T00:29:27.187Z,98743.53
2022-08-26T00:32:12.636Z,98734.84
2022-08-26T00:34:59.892Z,98733.59
2022-08-26T00:37:45.818Z,98742.75
2022-08-26T00:40:38.828Z,98732.81
2022-08-26T00:43:25.398Z,98736.38
2022-08-26T00:46:16.647Z,98732.06
2022-08-26T00:49:25.882Z,98727.72
2022-08-26T00:52:15.783Z,98729.28
2022-08-26T00:55:20.565Z,98721.81
2022-08-26T00:58:08.651Z,98717.47
2022-08-26T01:00:54.703Z,98716.69
2022-08-26T01:03:42.299Z,98715.91
2022-08-26T01:06:28.583Z,98717.78
2022-08-26T01:09:14.917Z,98717.34
2022-08-26T01:12:03.045Z,98717.78
2022-08-26T01:14:49.005Z,98719.38
2022-08-26T01:17:34.461Z,98718.13
2022-08-26T01:20:29.702Z,98719.38
2022-08-26T01:23:15.928Z,98722.16
2022-08-26T01:26:07.588Z,98720.16
2022-08-26T01:29:05.989Z,98717.78
2022-08-26T01:31:57.887Z,98711.88
2022-08-26T01:34:43.463Z,98715.00
2022-08-26T01:37:34.862Z,98722.59
2022-08-26T01:40:25.694Z,98717.47
2022-08-26T01:43:17.713Z,98719.47
2022-08-26T01:46:03.859Z,98723.03
2022-08-26T01:48:52.352Z,98715.91
2022-08-26T01:51:41.048Z,98720.25
2022-08-26T01:54:26.513Z,98715.91
2022-08-26T01:57:15.503Z,98719.91
2022-08-26T02:00:02.399Z,98712.31
2022-08-26T02:03:17.214Z,98719.91
2022-08-26T02:06:09.346Z,98720.69
2022-08-26T02:08:57.795Z,98722.34
2022-08-26T02:11:44.658Z,98711.22
2022-08-26T02:14:34.770Z,98715.25
2022-08-26T02:17:24.529Z,98714.00
2022-08-26T02:20:13.312Z,98716.00
2022-08-26T02:23:00.223Z,98723.59
2022-08-26T02:26:09.922Z,98721.25
2022-08-26T02:29:01.861Z,98716.44
2022-08-26T02:31:48.550Z,98719.25
2022-08-26T02:34:34.916Z,98720.81
2022-08-26T02:37:20.191Z,98706.56
2022-08-26T02:40:09.920Z,98715.25
2022-08-26T02:42:57.062Z,98708.91
2022-08-26T02:45:43.136Z,98716.44
2022-08-26T02:48:29.360Z,98714.47
2022-08-26T02:51:14.936Z,98710.09
2022-08-26T02:54:00.231Z,98711.34
2022-08-26T02:56:46.622Z,98712.91
2022-08-26T02:59:32.275Z,98701.75
2022-08-26T03:02:17.905Z,98703.34
2022-08-26T03:05:04.171Z,98703.44
2022-08-26T03:07:49.617Z,98704.97
2022-08-26T03:10:34.784Z,98704.97
2022-08-26T03:13:20.039Z,98705.78
2022-08-26T03:16:06.474Z,98709.00
2022-08-26T03:18:52.329Z,98704.66
2022-08-26T03:21:39.239Z,98706.22
2022-08-26T03:24:25.943Z,98706.22
2022-08-26T03:27:11.528Z,98701.88
2022-08-26T03:30:15.125Z,98697.88
2022-08-26T03:33:01.383Z,98693.53
2022-08-26T03:35:50.618Z,98696.31
2022-08-26T03:38:36.240Z,98695.97
2022-08-26T03:41:21.919Z,98697.53
2022-08-26T03:44:11.279Z,98692.72
2022-08-26T03:46:56.718Z,98694.75
2022-08-26T03:49:41.922Z,98691.97
2022-08-26T03:52:27.997Z,98689.50
2022-08-26T03:55:14.393Z,98685.19
2022-08-26T03:58:00.767Z,98690.75
2022-08-26T04:00:46.381Z,98683.59
2022-08-26T04:03:50.344Z,98680.06
2022-08-26T04:06:45.179Z,98682.41
2022-08-26T04:09:31.045Z,98688.28
2022-08-26T04:12:21.012Z,98683.03
2022-08-26T04:15:14.010Z,98682.25
2022-08-26T04:17:59.560Z,98688.16
2022-08-26T04:20:44.799Z,98686.50
2022-08-26T04:23:30.279Z,98688.06
2022-08-26T04:26:17.143Z,98689.94
2022-08-26T04:29:05.326Z,98694.31
2022-08-26T04:31:55.609Z,98689.84
2022-08-26T04:34:42.320Z,98688.94
2022-08-26T04:37:27.765Z,98688.50
2022-08-26T04:40:13.142Z,98691.28
2022-08-26T04:42:58.625Z,98686.94
2022-08-26T04:45:44.335Z,98682.13
2022-08-26T04:48:31.122Z,98686.06
2022-08-26T04:51:16.483Z,98684.81
2022-08-26T04:54:02.295Z,98684.47
2022-08-26T04:56:49.538Z,98682.47
2022-08-26T04:59:39.132Z,98691.16
2022-08-26T05:02:24.860Z,98690.38
2022-08-26T05:05:10.764Z,98687.25
2022-08-26T05:08:00.501Z,98685.91
2022-08-26T05:10:49.305Z,98686.69
2022-08-26T05:13:35.788Z,98693.84
2022-08-26T05:16:22.459Z,98687.94
2022-08-26T05:19:08.608Z,98687.59
2022-08-26T05:21:54.229Z,98691.63
2022-08-26T05:24:41.348Z,98694.84
2022-08-26T05:27:26.519Z,98689.72
2022-08-26T05:30:12.219Z,98695.63
2022-08-26T05:32:57.915Z,98695.63
2022-08-26T05:35:45.148Z,98701.63
2022-08-26T05:38:31.527Z,98698.75
2022-08-26T05:41:21.675Z,98693.16
2022-08-26T05:44:10.475Z,98692.94
2022-08-26T05:46:55.893Z,98693.94
2022-08-26T05:49:51.331Z,98692.81
2022-08-26T05:52:37.800Z,98688.47
2022-08-26T05:55:23.415Z,98690.47
2022-08-26T05:58:08.596Z,98690.47
2022-08-26T06:00:58.455Z,98682.44
2022-08-26T06:03:47.610Z,98682.44
2022-08-26T06:06:36.484Z,98682.88
2022-08-26T06:09:21.708Z,98681.78
2022-08-26T06:12:07.272Z,98678.66
2022-08-26T06:14:52.730Z,98685.47
2022-08-26T06:17:37.992Z,98682.81
2022-08-26T06:20:23.497Z,98687.16
2022-08-26T06:23:28.168Z,98686.38
2022-08-26T06:26:16.165Z,98691.97
2022-08-26T06:29:02.485Z,98689.94
2022-08-26T06:31:50.148Z,98690.72
2022-08-26T06:34:37.109Z,98692.41
2022-08-26T06:37:22.593Z,98693.94
2022-08-26T06:40:09.931Z,98686.81
2022-08-26T06:42:57.049Z,98686.81
2022-08-26T06:45:44.795Z,98690.38
2022-08-26T06:48:30.048Z,98683.25
2022-08-26T06:51:19.749Z,98681.69
2022-08-26T06:54:10.142Z,98683.72
2022-08-26T06:56:57.660Z,98677.34
2022-08-26T06:59:43.154Z,98679.34
2022-08-26T07:02:28.545Z,98680.16
2022-08-26T07:05:14.825Z,98690.03
2022-08-26T07:08:00.229Z,98686.16
2022-08-26T07:10:45.368Z,98686.16
2022-08-26T07:13:31.046Z,98688.50
2022-08-26T07:16:18.106Z,98678.91
2022-08-26T07:19:10.862Z,98681.69
2022-08-26T07:21:56.763Z,98684.03
2022-08-26T07:24:42.699Z,98680.47
2022-08-26T07:27:29.382Z,98681.69
2022-08-26T07:30:15.018Z,98678.91
2022-08-26T07:33:00.698Z,98672.56
2022-08-26T07:35:45.947Z,98680.16
2022-08-26T07:38:32.395Z,98673.00
2022-08-26T07:41:22.837Z,98678.56
2022-08-26T07:44:08.912Z,98675.00
2022-08-26T07:46:55.585Z,98669.88
2022-08-26T07:49:42.792Z,98679.81
2022-08-26T07:52:30.449Z,98665.88
2022-08-26T07:55:16.260Z,98666.66
2022-08-26T07:58:02.616Z,98667.09
2022-08-26T08:00:47.846Z,98665.88
2022-08-26T08:03:33.752Z,98661.53
2022-08-26T08:06:27.294Z,98662.78
2022-08-26T08:09:14.866Z,98655.97
2022-08-26T08:12:01.769Z,98657.19
2022-08-26T08:14:48.326Z,98655.19
2022-08-26T08:17:34.547Z,98654.28
2022-08-26T08:20:21.280Z,98650.63
2022-08-26T08:23:08.201Z,98652.16
2022-08-26T08:26:08.288Z,98650.19
2022-08-26T08:28:55.872Z,98648.16
2022-08-26T08:31:58.010Z,98649.38
2022-08-26T08:37:35.157Z,98656.63
2022-08-26T08:40:21.468Z,98641.50
2022-08-26T08:43:10.926Z,98646.25
2022-08-26T08:46:04.371Z,98644.72
2022-08-26T08:48:56.848Z,98641.59
2022-08-26T08:51:48.392Z,98638.47
2022-08-26T08:54:33.973Z,98643.28
2022-08-26T08:57:31.581Z,98643.28
2022-08-26T09:00:19.378Z,98641.72
2022-08-26T09:03:26.864Z,98648.50
2022-08-26T09:06:17.032Z,98637.38
2022-08-26T09:09:04.857Z,98635.38
2022-08-26T09:11:51.958Z,98626.22
2022-08-26T09:14:37.403Z,98628.25
2022-08-26T09:17:22.507Z,98624.69
2022-08-26T09:20:37.459Z,98631.81
2022-08-26T09:23:23.083Z,98630.56
2022-08-26T09:26:19.438Z,98631.81
2022-08-26T09:29:18.373Z,98622.22
2022-08-26T09:32:24.940Z,98621.91
2022-08-26T09:35:26.959Z,98621.09
2022-08-26T09:38:27.907Z,98627.47
2022-08-26T09:41:27.539Z,98627.47
2022-08-26T09:44:18.929Z,98625.91
2022-08-26T09:47:06.787Z,98628.69
2022-08-26T09:50:09.477Z,98630.25
2022-08-26T09:53:09.978Z,98619.13
2022-08-26T09:56:27.547Z,98621.91
2022-08-26T09:59:13.225Z,98629.03
2022-08-26T10:02:17.297Z,98616.63
2022-08-26T10:05:09.546Z,98610.53
2022-08-26T10:07:55.512Z,98596.47
2022-08-26T10:10:45.363Z,98592.00
2022-08-26T10:13:45.139Z,98583.19
2022-08-26T10:16:41.541Z,98566.38
2022-08-26T10:19:56.275Z,98576.59
2022-08-26T10:22:54.497Z,98572.47
2022-08-26T10:25:53.441Z,98566.03
2022-08-26T10:28:46.391Z,98563.88
2022-08-26T10:31:51.311Z,98559.44
2022-08-26T10:34:37.008Z,98556.31
2022-08-26T10:37:26.157Z,98549.06
2022-08-26T10:40:18.489Z,98545.69
2022-08-26T10:43:11.060Z,98543.22
2022-08-26T10:46:06.896Z,98537.19
2022-08-26T10:49:14.947Z,98518.78
2022-08-26T10:52:22.089Z,98516.78
2022-08-26T10:55:19.934Z,98523.00
2022-08-26T10:58:28.090Z,98523.31
2022-08-26T11:01:43.030Z,98525.78
2022-08-26T11:04:47.483Z,98529.47
2022-08-26T11:07:46.267Z,98529.94
2022-08-26T11:10:59.121Z,98533.50
2022-08-26T11:13:56.424Z,98522.34
2022-08-26T11:16:47.113Z,98523.88
2022-08-26T11:19:59.392Z,98522.34
2022-08-26T11:22:47.805Z,98516.78
2022-08-26T11:25:33.735Z,98512.75
2022-08-26T11:28:45.223Z,98513.06
2022-08-26T11:31:30.788Z,98507.81
2022-08-26T11:34:17.298Z,98508.63
2022-08-26T11:37:12.427Z,98495.47
2022-08-26T11:39:58.084Z,98487.88
2022-08-26T11:42:50.568Z,98470.22
2022-08-26T11:46:01.803Z,98464.53
2022-08-26T11:48:47.869Z,98448.88
2022-08-26T11:51:40.430Z,98440.72
2022-08-26T11:54:30.770Z,98425.53
2022-08-26T11:57:21.293Z,98428.31
2022-08-26T12:00:13.527Z,98418.41
2022-08-26T12:03:02.535Z,98417.94
2022-08-26T12:05:50.371Z,98423.69
2022-08-26T12:08:42.900Z,98427.25
2022-08-26T12:11:35.101Z,98416.56
2022-08-26T12:14:25.010Z,98421.81
2022-08-26T12:17:20.022Z,98431.44
2022-08-26T12:20:46.029Z,98434.88
2022-08-26T12:23:41.466Z,98435.75
2022-08-26T12:26:34.913Z,98427.41
2022-08-26T12:29:27.882Z,98437.00
2022-08-26T12:32:18.354Z,98440.13
2022-08-26T12:37:55.986Z,98435.31
2022-08-26T12:40:46.527Z,98433.28
2022-08-26T12:43:44.211Z,98428.34
2022-08-26T12:46:29.767Z,98424.81
2022-08-26T12:49:18.794Z,98428.03
2022-08-26T12:52:07.962Z,98426.50
2022-08-26T12:54:59.619Z,98426.81
2022-08-26T12:57:45.731Z,98435.19
2022-08-26T13:00:42.117Z,98448.97
2022-08-26T13:03:45.999Z,98446.69
2022-08-26T13:06:31.561Z,98436.44
2022-08-26T13:09:17.175Z,98433.19
2022-08-26T13:12:02.540Z,98423.78
2022-08-26T13:14:47.773Z,98414.00
2022-08-26T13:17:35.948Z,98412.63
2022-08-26T13:20:21.449Z,98407.50
2022-08-26T13:23:08.176Z,98407.97
2022-08-26T13:25:53.753Z,98413.88
2022-08-26T13:28:39.248Z,98417.09
2022-08-26T13:31:27.367Z,98428.09
2022-08-26T13:34:19.274Z,98432.13
2022-08-26T13:37:05.259Z,98431.19
2022-08-26T13:39:51.168Z,98439.88
2022-08-26T13:42:36.833Z,98439.88
2022-08-26T13:45:34.676Z,98451.03
2022-08-26T13:48:22.875Z,98454.81
2022-08-26T13:51:08.988Z,98455.00
2022-08-26T13:53:55.209Z,98444.28
2022-08-26T13:56:40.938Z,98437.94
2022-08-26T13:59:26.494Z,98439.50
2022-08-26T14:02:11.804Z,98424.78
2022-08-26T14:04:57.399Z,98417.94
2022-08-26T14:07:42.956Z,98412.38
2022-08-26T14:10:28.560Z,98402.28
2022-08-26T14:13:15.240Z,98397.97
2022-08-26T14:16:02.503Z,98398.16
2022-08-26T14:18:50.930Z,98396.13
2022-08-26T14:21:39.426Z,98388.22
2022-08-26T14:24:24.959Z,98394.41
2022-08-26T14:27:12.539Z,98393.16
2022-08-26T14:29:59.666Z,98391.19
2022-08-26T14:32:52.101Z,98398.63
2022-08-26T14:35:37.711Z,98398.16
2022-08-26T14:38:23.093Z,98390.69
2022-08-26T14:41:08.425Z,98380.03
2022-08-26T14:44:06.856Z,98381.09
2022-08-26T14:46:53.533Z,98377.81
2022-08-26T14:49:38.850Z,98370.41
2022-08-26T14:52:24.342Z,98371.47
2022-08-26T14:55:09.926Z,98372.56
2022-08-26T14:57:55.426Z,98367.78
2022-08-26T15:00:40.807Z,98373.38
2022-08-26T15:03:27.913Z,98366.06
2022-08-26T15:06:15.131Z,98361.56
2022-08-26T15:09:00.784Z,98365.91
2022-08-26T15:11:47.584Z,98349.34
2022-08-26T15:14:33.585Z,98346.22
2022-08-26T15:17:18.825Z,98357.41
2022-08-26T15:20:07.931Z,98366.53
2022-08-26T15:22:53.556Z,98372.13
2022-08-26T15:25:38.788Z,98369.63
2022-08-26T15:28:24.020Z,98372.44
2022-08-26T15:31:09.736Z,98382.34
2022-08-26T15:33:56.462Z,98383.91
2022-08-26T15:36:44.724Z,98382.97
2022-08-26T15:39:30.427Z,98382.97
2022-08-26T15:42:15.956Z,98382.97
2022-08-26T15:45:01.612Z,98382.97
2022-08-26T15:48:01.320Z,98388.53
2022-08-26T15:50:54.777Z,98377.25
2022-08-26T15:53:40.214Z,98378.47
2022-08-26T15:56:27.676Z,98382.06
2022-08-26T15:59:13.936Z,98399.13
2022-08-26T16:02:00.548Z,98408.72
2022-08-26T16:04:46.018Z,98391.66
2022-08-26T16:07:32.249Z,98398.47
2022-08-26T16:10:18.654Z,98407.16
2022-08-26T16:13:05.013Z,98401.59
2022-08-26T16:15:50.515Z,98408.41
2022-08-26T16:18:35.908Z,98409.97
2022-08-26T16:21:24.676Z,98410.59
2022-08-26T16:24:10.633Z,98405.59
2022-08-26T16:26:56.249Z,98403.59
2022-08-26T16:29:41.428Z,98408.72
2022-08-26T16:32:30.725Z,98402.34
2022-08-26T16:35:16.815Z,98404.38
2022-08-26T16:38:02.635Z,98411.03
2022-08-26T16:40:48.377Z,98403.13
2022-08-26T16:43:34.472Z,98396.63
2022-08-26T16:46:22.299Z,98387.94
2022-08-26T16:49:07.861Z,98385.59
2022-08-26T16:51:53.361Z,98378.63
2022-08-26T16:54:39.867Z,98377.53
2022-08-26T16:57:25.524Z,98379.25
2022-08-26T17:00:37.554Z,98378.50
2022-08-26T17:03:23.401Z,98388.72
2022-08-26T17:06:09.541Z,98384.22
2022-08-26T17:08:54.962Z,98390.72
2022-08-26T17:11:42.278Z,98393.03
2022-08-26T17:14:27.970Z,98386.06
2022-08-26T17:17:13.977Z,98381.41
2022-08-26T17:20:07.350Z,98383.13
2022-08-26T17:22:56.017Z,98383.59
2022-08-26T17:25:41.718Z,98378.50
2022-08-26T17:28:27.637Z,98371.03
2022-08-26T17:31:14.161Z,98369.50
2022-08-26T17:34:01.007Z,98367.91
2022-08-26T17:36:46.349Z,98371.50
2022-08-26T17:39:33.016Z,98353.97
2022-08-26T17:42:18.861Z,98337.72
2022-08-26T17:45:06.238Z,98331.94
2022-08-26T17:47:53.627Z,98321.28
2022-08-26T17:50:41.328Z,98332.91
2022-08-26T17:53:29.783Z,98342.50
2022-08-26T17:56:18.646Z,98345.28
2022-08-26T17:59:04.281Z,98346.09
2022-08-26T18:01:50.232Z,98349.94
2022-08-26T18:04:36.234Z,98354.75
2022-08-26T18:07:22.079Z,98369.00
2022-08-26T18:10:12.951Z,98371.50
2022-08-26T18:12:58.681Z,98371.19
2022-08-26T18:15:47.354Z,98381.41
2022-08-26T18:18:34.267Z,98367.59
2022-08-26T18:21:23.104Z,98376.94
2022-08-26T18:24:13.329Z,98377.69
2022-08-26T18:26:59.907Z,98383.75
2022-08-26T18:29:48.478Z,98377.56
2022-08-26T18:32:36.139Z,98375.38
2022-08-26T18:35:21.938Z,98368.09
2022-08-26T18:38:11.100Z,98378.00
2022-08-26T18:40:57.403Z,98380.03
2022-08-26T18:43:43.328Z,98391.34
2022-08-26T18:46:29.284Z,98400.19
2022-08-26T18:49:17.507Z,98407.31
2022-08-26T18:52:03.580Z,98419.88
2022-08-26T18:54:50.086Z,98424.03
2022-08-26T18:57:36.063Z,98435.84
2022-08-26T19:00:21.462Z,98437.25
2022-08-26T19:03:18.388Z,98444.38
2022-08-26T19:06:05.196Z,98451.34
2022-08-26T19:08:50.944Z,98446.56
2022-08-26T19:11:42.216Z,98436.63
2022-08-26T19:14:29.036Z,98431.34
2022-08-26T19:17:15.438Z,98436.94
2022-08-26T19:20:01.175Z,98433.69
2022-08-26T19:22:46.704Z,98422.84
2022-08-26T19:25:32.407Z,98422.97
2022-08-26T19:28:19.581Z,98420.00
2022-08-26T19:31:04.919Z,98422.50
2022-08-26T19:33:50.615Z,98421.72
2022-08-26T19:36:36.135Z,98422.66
2022-08-26T19:39:21.893Z,98418.00
2022-08-26T19:42:07.206Z,98406.97
2022-08-26T19:45:07.483Z,98411.00
2022-08-26T19:47:59.431Z,98410.22
2022-08-26T19:50:46.252Z,98401.09
2022-08-26T19:53:31.823Z,98395.06
2022-08-26T19:56:17.818Z,98407.44
2022-08-26T19:59:03.380Z,98407.13
2022-08-26T20:02:00.836Z,98419.06
2022-08-26T20:04:47.228Z,98426.66
2022-08-26T20:07:33.093Z,98414.25
2022-08-26T20:10:21.369Z,98417.97
2022-08-26T20:13:06.753Z,98415.50
2022-08-26T20:15:53.945Z,98406.53
2022-08-26T20:18:59.336Z,98399.38
2022-08-26T20:21:45.706Z,98401.84
2022-08-26T20:24:32.694Z,98403.09
2022-08-26T20:27:18.000Z,98393.94
2022-08-26T20:30:04.895Z,98402.78
2022-08-26T20:32:50.312Z,98408.34
2022-08-26T20:35:35.852Z,98406.47
2022-08-26T20:38:21.729Z,98407.28
2022-08-26T20:41:07.421Z,98409.25
2022-08-26T20:43:53.933Z,98401.38
2022-08-26T20:46:39.943Z,98405.38
2022-08-26T20:49:27.142Z,98408.66
2022-08-26T20:52:13.744Z,98406.63
2022-08-26T20:54:59.248Z,98403.06
2022-08-26T20:57:44.566Z,98406.75
2022-08-26T21:00:30.035Z,98412.31
2022-08-26T21:03:15.583Z,98411.69
2022-08-26T21:06:01.208Z,98410.47
2022-08-26T21:08:47.467Z,98406.59
2022-08-26T21:11:34.259Z,98411.38
2022-08-26T21:14:20.679Z,98419.28
2022-08-26T21:17:06.116Z,98419.44
2022-08-26T21:19:51.289Z,98419.28
2022-08-26T21:22:36.564Z,98424.22
2022-08-26T21:25:21.781Z,98430.59
2022-08-26T21:28:07.072Z,98440.94
2022-08-26T21:30:52.332Z,98438.63
2022-08-26T21:33:38.366Z,98432.75
2022-08-26T21:36:24.033Z,98426.69
2022-08-26T21:39:11.915Z,98420.34
2022-08-26T21:41:58.035Z,98415.69
2022-08-26T21:44:44.793Z,98426.06
2022-08-26T21:47:34.823Z,98414.94
2022-08-26T21:50:20.580Z,98411.34
2022-08-26T21:53:06.597Z,98405.00
2022-08-26T21:55:53.743Z,98396.00
2022-08-26T21:58:40.294Z,98388.56
2022-08-26T22:01:29.520Z,98379.75
2022-08-26T22:04:15.453Z,98371.06
2022-08-26T22:07:01.932Z,98381.41
2022-08-26T22:09:47.658Z,98385.78
2022-08-26T22:12:32.952Z,98385.00
2022-08-26T22:15:23.016Z,98387.31
2022-08-26T22:18:09.630Z,98382.53
2022-08-26T22:20:56.871Z,98389.31
2022-08-26T22:23:43.449Z,98383.44
2022-08-26T22:26:31.326Z,98391.03
2022-08-26T22:29:18.709Z,98390.56
2022-08-26T22:32:04.847Z,98385.00
2022-08-26T22:34:50.406Z,98378.63
2022-08-26T22:37:35.782Z,98379.44
2022-08-26T22:40:21.117Z,98390.56
2022-08-26T22:43:07.752Z,98381.72
2022-08-26T22:45:54.620Z,98377.09
2022-08-26T22:48:40.120Z,98382.66
2022-08-26T22:51:25.465Z,98387.47
2022-08-26T22:54:10.740Z,98386.69
2022-08-26T22:56:56.174Z,98386.38
2022-08-26T22:59:41.437Z,98397.84
2022-08-26T23:02:27.898Z,98403.44
2022-08-26T23:05:13.204Z,98399.84
2022-08-26T23:07:58.835Z,98407.44
2022-08-26T23:10:46.547Z,98399.84
2022-08-26T23:13:31.983Z,98408.19
2022-08-26T23:16:17.325Z,98407.44
2022-08-26T23:19:04.723Z,98393.94
2022-08-26T23:21:50.691Z,98395.19
2022-08-26T23:24:36.157Z,98393.94
2022-08-26T23:27:21.471Z,98402.78
2022-08-26T23:30:12.209Z,98399.53
2022-08-26T23:32:58.522Z,98406.34
2022-08-26T23:35:44.240Z,98414.72
2022-08-26T23:38:29.405Z,98420.28
2022-08-26T23:41:15.359Z,98424.31
2022-08-26T23:44:05.066Z,98445.06
2022-08-26T23:46:50.590Z,98442.25
2022-08-26T23:49:36.838Z,98447.06
2022-08-26T23:52:40.720Z,98441.94
2022-08-26T23:55:26.017Z,98440.41
2022-08-26T23:58:11.319Z,98434.34
